Time;durP1;ratioP1;P1;durP2;ratioP2;P2;SDS_P1;SDS_P2;PMS_P1;PMS_P2;Temp;Humidity;BMP_temperature;BMP_pressure;BME280_temperature;BME280_humidity;BME280_pressure;Samples;Min_cycle;Max_cycle;Signal;HPM_P1;HPM_P2
2023/12/22 05:35:57;;;;;;;5.15;1.23;;;;;;;7.23;73.83;98398.94;5604982;31;127000;-53
2023/12/22 05:39:00;;;;;;;4.82;1.20;;;;;;;7.23;73.83;98398.94;5591154;31;34069;-52
2023/12/22 05:42:02;;;;;;;3.25;1.23;;;;;;;6.69;73.79;98407.97;5596042;31;34210;-53
2023/12/22 05:45:06;;;;;;;5.28;1.48;;;;;;;6.82;75.85;98402.63;5602940;31;33328;-55
2023/12/22 05:48:08;;;;;;;2.72;0.90;;;;;;;6.85;73.75;98406.53;5589951;31;33611;-53
2023/12/22 05:51:13;;;;;;;6.65;1.30;;;;;;;6.83;72.52;98406.06;5583096;31;33493;-52
2023/12/22 05:54:16;;;;;;;5.18;1.35;;;;;;;6.91;72.55;98423.97;5579469;32;34224;-54
2023/12/22 05:57:19;;;;;;;4.15;1.12;;;;;;;6.80;71.08;98422.66;5578935;32;33695;-53
2023/12/22 06:00:22;;;;;;;3.65;1.10;;;;;;;6.80;71.54;98425.31;5583108;31;33591;-53
2023/12/22 06:03:24;;;;;;;4.25;1.62;;;;;;;6.81;72.53;98430.31;5582989;31;33646;-53
2023/12/22 06:06:27;;;;;;;5.55;1.40;;;;;;;6.87;71.45;98436.31;5582795;32;34331;-53
2023/12/22 06:09:30;;;;;;;2.58;1.10;;;;;;;6.81;68.74;98432.19;5582763;32;33509;-53
2023/12/22 06:12:32;;;;;;;4.97;1.23;;;;;;;6.86;66.96;98440.09;5582593;32;33695;-52
2023/12/22 06:15:34;;;;;;;3.30;1.30;;;;;;;6.89;67.61;98439.47;5581126;31;33106;-53
2023/12/22 06:18:37;;;;;;;4.00;1.40;;;;;;;6.70;68.47;98462.84;5583454;32;34230;-53
2023/12/22 06:21:39;;;;;;;4.97;1.25;;;;;;;6.74;69.27;98477.91;5583716;31;34366;-52
2023/12/22 06:24:41;;;;;;;4.62;1.35;;;;;;;6.67;67.49;98490.06;5582573;31;33734;-53
2023/12/22 06:27:46;;;;;;;5.72;1.40;;;;;;;6.78;67.15;98494.84;5583090;32;33519;-53
2023/12/22 06:30:48;;;;;;;7.82;1.55;;;;;;;6.75;68.91;98503.44;5583459;32;33659;-53
2023/12/22 06:33:51;;;;;;;4.03;1.30;;;;;;;6.76;67.90;98510.34;5583367;32;33507;-53
2023/12/22 06:36:53;;;;;;;4.57;1.75;;;;;;;6.73;65.73;98512.81;5582340;31;33609;-54
2023/12/22 06:39:56;;;;;;;6.47;1.40;;;;;;;6.79;66.72;98552.34;5582029;31;33754;-54
2023/12/22 06:42:58;;;;;;;6.40;1.33;;;;;;;6.72;64.80;98516.56;5586351;31;33692;-53
2023/12/22 06:46:00;;;;;;;6.03;1.67;;;;;;;6.78;65.66;98510.03;5581153;31;34239;-52
2023/12/22 06:49:03;;;;;;;9.57;2.10;;;;;;;6.89;64.11;98511.41;5570085;32;33523;-53
2023/12/22 06:52:08;;;;;;;3.40;1.60;;;;;;;7.09;62.85;98507.47;5567109;32;33677;-54
2023/12/22 06:55:10;;;;;;;5.10;1.25;;;;;;;6.95;62.67;98512.84;5568257;32;33597;-53
2023/12/22 06:58:14;;;;;;;5.47;1.30;;;;;;;6.95;65.55;98512.84;5550823;32;34673;-53
2023/12/22 07:01:35;;;;;;;3.92;1.70;;;;;;;6.97;61.79;98520.53;5559646;32;33584;-53
2023/12/22 07:04:39;;;;;;;8.13;1.67;;;;;;;6.96;60.37;98525.09;5567106;32;33578;-53
2023/12/22 07:07:41;;;;;;;7.35;1.40;;;;;;;7.00;60.51;98530.59;5570038;32;33262;-53
2023/12/22 07:10:44;;;;;;;3.45;1.35;;;;;;;7.04;60.22;98539.56;5568664;32;33900;-53
2023/12/22 07:13:46;;;;;;;5.68;1.98;;;;;;;7.17;60.06;98527.28;5570078;32;33817;-53
2023/12/22 07:16:49;;;;;;;8.15;2.17;;;;;;;7.04;59.93;98544.87;5568424;32;33563;-53
2023/12/22 07:19:52;;;;;;;5.05;1.45;;;;;;;7.05;59.80;98541.94;5568757;32;34393;-53
2023/12/22 07:22:56;;;;;;;6.57;1.87;;;;;;;7.12;61.55;98546.03;5569746;32;33566;-53
2023/12/22 07:25:59;;;;;;;3.47;1.23;;;;;;;7.13;58.60;98556.41;5569775;32;34196;-53
2023/12/22 07:29:01;;;;;;;5.25;1.40;;;;;;;7.10;60.58;98546.34;5568787;32;33631;-53
2023/12/22 07:32:04;;;;;;;8.30;1.50;;;;;;;7.15;59.44;98551.56;5567773;32;33698;-53
2023/12/22 07:35:07;;;;;;;4.32;1.55;;;;;;;7.19;59.64;98549.09;5568520;32;33675;-53
2023/12/22 07:38:10;;;;;;;6.15;1.52;;;;;;;7.22;59.96;98548.50;5562846;32;33703;-54
2023/12/22 07:41:12;;;;;;;5.65;1.50;;;;;;;7.33;60.46;98533.03;5568492;32;33639;-53
2023/12/22 07:44:15;;;;;;;6.78;1.48;;;;;;;7.46;60.17;98553.50;5569914;32;33594;-53
2023/12/22 07:47:17;;;;;;;6.80;1.42;;;;;;;7.52;60.41;98550.41;5569740;32;33697;-53
2023/12/22 07:50:21;;;;;;;4.35;1.45;;;;;;;7.53;61.60;98559.97;5568901;32;34293;-53
2023/12/22 07:53:23;;;;;;;4.35;1.48;;;;;;;7.53;59.87;98565.31;5568698;32;34744;-54
2023/12/22 07:56:26;;;;;;;6.93;1.70;;;;;;;7.53;61.46;98556.53;5568369;32;33596;-53
2023/12/22 07:59:29;;;;;;;7.25;1.60;;;;;;;7.58;61.03;98567.06;5568183;32;34392;-53
2023/12/22 08:02:33;;;;;;;3.78;1.30;;;;;;;7.70;61.38;98569.97;5569620;32;33736;-53
2023/12/22 08:05:36;;;;;;;3.67;1.40;;;;;;;7.79;63.42;98578.03;5569560;32;33628;-53
2023/12/22 08:08:38;;;;;;;8.05;1.60;;;;;;;7.91;65.13;98572.91;5566669;32;33572;-53
2023/12/22 08:11:40;;;;;;;8.20;1.92;;;;;;;7.89;63.67;98575.09;5569473;32;34089;-53
2023/12/22 08:14:43;;;;;;;4.45;1.33;;;;;;;7.80;64.23;98576.91;5568713;32;33670;-53
2023/12/22 08:17:47;;;;;;;4.20;1.20;;;;;;;7.82;63.59;98580.09;5567352;32;34429;-52
2023/12/22 08:20:49;;;;;;;6.37;1.45;;;;;;;7.84;63.17;98564.53;5567990;32;34359;-53
2023/12/22 08:23:53;;;;;;;5.93;1.50;;;;;;;8.04;65.71;98555.22;5569319;32;33788;-52
2023/12/22 08:26:57;;;;;;;4.93;2.22;;;;;;;8.07;62.53;98567.94;5568373;32;33711;-53
2023/12/22 08:30:00;;;;;;;4.90;1.55;;;;;;;7.97;62.09;98569.00;5564454;32;33561;-53
2023/12/22 08:33:02;;;;;;;5.12;1.80;;;;;;;8.15;72.58;98558.41;5567129;32;34665;-52
2023/12/22 08:36:05;;;;;;;5.90;1.40;;;;;;;8.36;66.33;98572.78;5562564;32;34098;-53
2023/12/22 08:39:07;;;;;;;5.50;1.40;;;;;;;8.44;65.42;98565.91;5562534;32;34360;-53
2023/12/22 08:42:12;;;;;;;3.70;1.35;;;;;;;8.54;64.76;98567.50;5567790;32;34256;-53
2023/12/22 08:45:14;;;;;;;5.80;1.67;;;;;;;8.45;61.66;98583.53;5566756;32;33707;-53
2023/12/22 08:48:17;;;;;;;3.87;1.55;;;;;;;8.32;63.17;98587.06;5567774;32;33654;-53
2023/12/22 08:51:19;;;;;;;4.90;1.65;;;;;;;8.50;71.99;98570.00;5568265;32;33707;-53
2023/12/22 08:54:22;;;;;;;7.30;1.37;;;;;;;8.43;60.77;98575.81;5564314;32;33623;-54
2023/12/22 08:57:24;;;;;;;7.70;1.52;;;;;;;8.29;60.47;98585.00;5567563;32;33157;-53
2023/12/22 09:00:27;;;;;;;4.32;1.20;;;;;;;8.34;64.50;98593.63;5568871;32;33659;-53
2023/12/22 09:03:33;;;;;;;5.53;1.48;;;;;;;8.43;63.05;98594.50;5569037;32;34371;-53
2023/12/22 09:06:35;;;;;;;6.37;1.62;;;;;;;8.51;62.63;98605.50;5567351;32;34254;-54
2023/12/22 09:09:38;;;;;;;5.95;1.67;;;;;;;8.53;62.10;98609.44;5568466;32;33541;-54
2023/12/22 09:12:40;;;;;;;5.43;1.65;;;;;;;8.41;60.21;98604.72;5568053;32;34159;-55
2023/12/22 09:15:46;;;;;;;6.53;1.52;;;;;;;8.15;62.11;98617.12;5557648;32;34361;-53
2023/12/22 09:18:49;;;;;;;8.02;1.98;;;;;;;7.95;62.00;98600.56;5564230;32;33573;-54
2023/12/22 09:21:52;;;;;;;5.03;1.25;;;;;;;8.08;63.19;98620.25;5567597;32;33552;-53
2023/12/22 09:24:54;;;;;;;5.07;1.30;;;;;;;8.21;65.01;98611.34;5568112;32;33656;-54
2023/12/22 09:27:56;;;;;;;3.65;1.35;;;;;;;8.33;64.14;98591.28;5563055;32;34396;-54
2023/12/22 09:30:59;;;;;;;4.35;1.20;;;;;;;8.27;63.16;98574.63;5562866;32;34252;-55
2023/12/22 09:34:02;;;;;;;5.25;1.23;;;;;;;8.29;61.97;98593.78;5566255;32;33679;-52
2023/12/22 09:37:05;;;;;;;7.00;1.50;;;;;;;8.19;62.19;98576.16;5568218;32;33702;-53
2023/12/22 09:40:09;;;;;;;4.53;1.25;;;;;;;8.15;61.34;98582.44;5567949;32;33568;-52
2023/12/22 09:43:14;;;;;;;4.82;1.40;;;;;;;8.22;62.94;98580.91;5567980;32;34302;-53
2023/12/22 09:46:18;;;;;;;6.37;1.80;;;;;;;8.36;61.24;98588.00;5567175;32;33704;-52
2023/12/22 09:49:22;;;;;;;3.50;1.10;;;;;;;8.38;60.59;98589.31;5567830;32;34370;-53
2023/12/22 09:52:25;;;;;;;3.87;1.20;;;;;;;8.37;62.27;98585.00;5567193;32;33741;-53
2023/12/22 09:55:28;;;;;;;3.00;1.20;;;;;;;8.55;63.34;98587.78;5567451;32;34227;-53
2023/12/22 09:58:32;;;;;;;4.15;1.17;;;;;;;8.61;61.78;98584.66;5568002;32;33546;-53
2023/12/22 10:01:36;;;;;;;3.72;1.30;;;;;;;8.46;61.98;98577.84;5567875;32;33677;-53
2023/12/22 10:04:38;;;;;;;3.12;1.02;;;;;;;8.42;64.13;98576.91;5566692;32;33669;-52
2023/12/22 10:07:44;;;;;;;3.35;1.37;;;;;;;8.53;62.98;98587.31;5566957;32;34319;-53
2023/12/22 10:10:47;;;;;;;3.33;1.40;;;;;;;8.59;61.84;98586.06;5566928;32;34415;-53
2023/12/22 10:13:52;;;;;;;4.62;1.20;;;;;;;8.41;60.70;98594.03;5566556;32;33517;-53
2023/12/22 10:16:56;;;;;;;3.67;1.30;;;;;;;8.36;62.03;98585.34;5563357;32;34351;-53
2023/12/22 10:19:58;;;;;;;3.92;1.17;;;;;;;8.43;64.32;98604.41;5564224;32;34311;-53
2023/12/22 10:23:00;;;;;;;1.95;1.02;;;;;;;8.40;62.11;98600.44;5568086;32;33570;-52
2023/12/22 10:26:03;;;;;;;1.67;1.00;;;;;;;8.23;62.55;98592.34;5567117;32;33638;-53
2023/12/22 10:29:08;;;;;;;3.40;1.10;;;;;;;8.20;63.26;98580.41;5567739;32;33807;-53
2023/12/22 10:32:10;;;;;;;1.92;1.00;;;;;;;8.24;73.75;98577.91;5570281;32;34273;-53
2023/12/22 10:35:13;;;;;;;2.87;1.08;;;;;;;8.21;63.83;98574.00;5570031;32;33654;-53
2023/12/22 10:38:18;;;;;;;2.55;1.23;;;;;;;8.18;63.12;98563.16;5570355;32;34216;-53
2023/12/22 10:41:21;;;;;;;6.70;1.00;;;;;;;8.32;63.36;98563.81;5569865;32;34407;-53
2023/12/22 10:44:25;;;;;;;3.03;1.00;;;;;;;8.40;63.23;98541.72;5569906;32;33849;-53
2023/12/22 10:47:28;;;;;;;3.97;1.05;;;;;;;8.08;63.01;98536.69;5570248;32;33788;-52
2023/12/22 10:50:31;;;;;;;4.37;1.30;;;;;;;8.33;65.71;98533.34;5570128;32;33658;-53
2023/12/22 10:53:34;;;;;;;2.87;1.00;;;;;;;8.29;63.73;98548.41;5570185;32;33614;-53
2023/12/22 10:56:36;;;;;;;3.35;1.27;;;;;;;8.18;63.96;98541.78;5570148;32;33707;-54
2023/12/22 10:59:47;;;;;;;5.53;1.40;;;;;;;8.25;64.71;98539.47;5570148;32;33672;-53
2023/12/22 11:03:05;;;;;;;3.47;1.42;;;;;;;8.35;62.76;98533.06;5569997;32;34358;-53
2023/12/22 11:06:11;;;;;;;2.28;1.12;;;;;;;8.34;63.07;98545.59;5570037;32;34331;-53
2023/12/22 11:09:16;;;;;;;3.25;1.00;;;;;;;8.23;63.44;98566.44;5569819;32;33465;-53
2023/12/22 11:12:19;;;;;;;3.20;1.15;;;;;;;8.22;62.61;98558.75;5570170;32;33695;-53
2023/12/22 11:15:22;;;;;;;1.27;0.90;;;;;;;8.28;62.32;98564.72;5569745;32;33764;-53
2023/12/22 11:18:27;;;;;;;2.53;1.12;;;;;;;8.18;61.87;98552.47;5569998;32;33676;-53
2023/12/22 11:21:30;;;;;;;3.58;1.00;;;;;;;8.22;61.60;98556.88;5569991;32;34342;-52
2023/12/22 11:24:35;;;;;;;1.92;1.10;;;;;;;8.46;65.12;98548.47;5569862;32;33590;-53
2023/12/22 11:27:37;;;;;;;2.65;1.15;;;;;;;8.36;60.85;98555.97;5569886;32;33685;-53
2023/12/22 11:30:40;;;;;;;5.07;1.10;;;;;;;8.43;69.67;98543.75;5569831;32;33755;-53
2023/12/22 11:33:47;;;;;;;2.85;1.20;;;;;;;8.47;61.44;98531.34;5569656;32;33768;-53
2023/12/22 11:37:08;;;;;;;2.50;0.90;;;;;;;8.56;65.08;98542.06;5569705;32;34432;-53
2023/12/22 11:40:10;;;;;;;3.65;1.30;;;;;;;8.51;61.26;98541.41;5569681;32;33751;-53
2023/12/22 11:43:13;;;;;;;1.80;0.98;;;;;;;8.51;62.14;98557.44;5569667;32;33616;-53
2023/12/22 11:46:18;;;;;;;11.60;1.20;;;;;;;8.49;62.60;98543.63;5569693;32;33728;-54
2023/12/22 11:49:32;;;;;;;3.90;1.40;;;;;;;8.40;59.89;98530.25;5569398;32;33646;-53
2023/12/22 11:52:35;;;;;;;2.95;1.20;;;;;;;8.40;59.91;98532.91;5569687;32;33855;-53
2023/12/22 11:56:04;;;;;;;2.00;1.05;;;;;;;8.30;60.56;98547.31;5569496;32;33567;-53
2023/12/22 11:59:06;;;;;;;2.17;0.90;;;;;;;8.22;60.03;98550.75;5569427;32;34347;-53
2023/12/22 12:02:10;;;;;;;2.65;0.77;;;;;;;8.30;60.17;98528.63;5569703;32;33669;-53
2023/12/22 12:05:13;;;;;;;2.67;1.10;;;;;;;8.23;60.04;98530.97;5569491;32;33682;-52
2023/12/22 12:08:29;;;;;;;4.55;1.10;;;;;;;8.22;59.37;98543.53;5569611;32;33801;-52
2023/12/22 12:12:11;;;;;;;1.20;0.70;;;;;;;8.31;59.89;98534.75;5569602;32;33626;-53
2023/12/22 12:15:17;;;;;;;2.95;1.37;;;;;;;8.19;59.91;98554.03;5569315;32;34403;-53
2023/12/22 12:18:21;;;;;;;;;;;;;;;8.08;60.23;98561.53;5569820;32;33567;-53
2023/12/22 12:21:23;;;;;;;2.37;0.93;;;;;;;8.24;60.98;98552.03;5569517;32;34012;-53
2023/12/22 12:24:26;;;;;;;3.55;1.17;;;;;;;8.23;61.00;98563.00;5569617;32;33554;-54
2023/12/22 12:27:29;;;;;;;3.58;1.45;;;;;;;8.26;60.91;98537.56;5569454;32;33609;-52
2023/12/22 12:30:32;;;;;;;2.60;0.85;;;;;;;8.43;61.02;98540.31;5569335;32;33878;-53
2023/12/22 12:33:36;;;;;;;2.90;1.00;;;;;;;8.42;61.17;98560.09;5569219;32;34730;-53
2023/12/22 12:36:39;;;;;;;2.08;0.73;;;;;;;8.43;61.53;98545.66;5569178;32;33640;-53
2023/12/22 12:39:43;;;;;;;1.95;0.88;;;;;;;8.34;59.75;98537.56;5569254;32;33689;-53
2023/12/22 12:42:52;;;;;;;2.80;0.80;;;;;;;8.39;62.61;98558.06;5568365;31;34113;-53
2023/12/22 12:46:03;;;;;;;3.87;1.15;;;;;;;8.23;65.71;98552.31;5588684;31;33655;-53
2023/12/22 12:49:07;;;;;;;2.17;0.90;;;;;;;8.10;63.79;98577.22;5587199;31;33550;-52
2023/12/22 12:52:15;;;;;;;8.30;1.90;;;;;;;7.95;64.41;98562.41;5588618;31;34348;-54
2023/12/22 12:55:19;;;;;;;4.85;1.25;;;;;;;7.96;71.23;98564.75;5588456;31;33608;-53
2023/12/22 12:58:27;;;;;;;3.53;1.02;;;;;;;7.88;64.70;98549.50;5588454;31;33693;-55
2023/12/22 13:01:30;;;;;;;2.00;1.00;;;;;;;7.84;64.30;98569.88;5588529;31;33618;-53
2023/12/22 13:04:39;;;;;;;2.00;0.85;;;;;;;7.67;65.92;98583.91;5588230;31;33597;-52
2023/12/22 13:07:41;;;;;;;3.12;0.90;;;;;;;7.43;68.94;98600.22;5588412;31;33691;-53
2023/12/22 13:10:43;;;;;;;1.37;0.75;;;;;;;7.21;73.08;98573.53;5588188;31;34231;-53
2023/12/22 13:13:46;;;;;;;1.83;0.88;;;;;;;7.00;73.44;98594.53;5588480;31;33349;-53
2023/12/22 13:16:49;;;;;;;4.68;1.25;;;;;;;6.95;75.91;98600.75;5551749;31;34298;-54
2023/12/22 13:19:51;;;;;;;3.33;1.10;;;;;;;6.87;77.34;98606.00;5549377;32;33206;-52
2023/12/22 13:22:54;;;;;;;2.30;0.90;;;;;;;6.94;77.49;98604.50;5548882;32;33665;-53
2023/12/22 13:25:57;;;;;;;1.87;1.00;;;;;;;6.96;76.41;98593.56;5549303;32;33706;-52
2023/12/22 13:29:00;;;;;;;1.95;1.12;;;;;;;6.95;78.34;98584.75;5548839;32;34230;-53
2023/12/22 13:32:03;;;;;;;3.10;1.40;;;;;;;6.95;73.97;98573.31;5549014;32;33882;-53
2023/12/22 13:35:06;;;;;;;2.80;1.08;;;;;;;6.99;72.27;98593.75;5548436;32;33925;-53
2023/12/22 13:38:09;;;;;;;1.45;1.20;;;;;;;7.15;73.07;98566.75;5548851;32;33755;-54
2023/12/22 13:41:14;;;;;;;3.30;1.10;;;;;;;7.29;71.27;98548.84;5548603;32;34258;-53
2023/12/22 13:44:16;;;;;;;2.28;0.90;;;;;;;7.36;69.50;98540.44;5548674;32;33728;-53
2023/12/22 13:47:19;;;;;;;2.65;1.17;;;;;;;7.46;67.24;98554.28;5587004;31;33697;-53
2023/12/22 13:50:24;;;;;;;3.85;1.40;;;;;;;7.49;66.87;98558.22;5587543;31;34305;-54
2023/12/22 13:53:27;;;;;;;3.22;1.20;;;;;;;7.59;67.53;98555.31;5587708;31;33581;-53
2023/12/22 13:56:35;;;;;;;3.12;1.20;;;;;;;7.68;65.52;98550.81;5588818;31;35109;-53
2023/12/22 13:59:37;;;;;;;2.90;1.42;;;;;;;7.76;66.80;98549.28;5590057;31;34280;-53
2023/12/22 14:02:39;;;;;;;4.65;1.70;;;;;;;7.92;65.99;98536.34;5589908;31;34346;-52
2023/12/22 14:05:43;;;;;;;3.35;1.20;;;;;;;7.92;67.23;98550.47;5589968;31;33677;-53
2023/12/22 14:08:46;;;;;;;4.53;1.35;;;;;;;7.92;65.90;98550.47;5590122;31;33719;-53
2023/12/22 14:11:48;;;;;;;3.03;0.85;;;;;;;7.99;67.46;98558.03;5590258;31;34504;-53
2023/12/22 14:14:59;;;;;;;3.72;1.10;;;;;;;8.03;65.35;98598.22;5590132;31;34266;-53
2023/12/22 14:18:02;;;;;;;3.17;1.08;;;;;;;7.54;68.59;98614.87;5590106;31;34304;-53
2023/12/22 14:21:05;;;;;;;3.92;0.95;;;;;;;7.32;74.06;98638.06;5589970;31;34316;-55
2023/12/22 14:24:07;;;;;;;1.52;1.05;;;;;;;7.02;78.31;98651.78;5590262;31;34294;-53
2023/12/22 14:27:10;;;;;;;0.90;0.80;;;;;;;6.75;84.98;98646.44;5589892;31;34448;-52
2023/12/22 14:30:13;;;;;;;1.30;0.90;;;;;;;6.50;83.51;98634.44;5590059;31;34424;-53
2023/12/22 14:33:15;;;;;;;3.67;1.20;;;;;;;6.31;85.52;98615.88;5589826;31;33729;-53
2023/12/22 14:36:18;;;;;;;2.87;1.33;;;;;;;6.25;85.34;98622.37;5590157;31;33574;-52
2023/12/22 14:39:20;;;;;;;2.42;1.20;;;;;;;6.06;86.04;98580.69;5589828;31;33868;-53
2023/12/22 14:42:22;;;;;;;1.58;1.05;;;;;;;5.99;85.39;98588.25;5589866;31;34408;-54
2023/12/22 14:45:25;;;;;;;2.30;1.10;;;;;;;6.18;85.46;98590.84;5578695;31;33248;-53
2023/12/22 14:48:27;;;;;;;2.67;1.20;;;;;;;6.22;86.17;98597.16;5570245;32;33919;-53
2023/12/22 14:51:34;;;;;;;3.60;1.37;;;;;;;6.22;86.07;98607.00;5570264;32;34358;-53
2023/12/22 14:54:37;;;;;;;2.83;1.42;;;;;;;6.19;86.80;98642.19;5570242;32;33656;-53
2023/12/22 14:57:39;;;;;;;2.58;1.40;;;;;;;6.25;84.16;98652.44;5570160;32;33744;-53
2023/12/22 15:00:42;;;;;;;2.87;1.30;;;;;;;6.19;83.74;98655.47;5570121;32;33647;-53
2023/12/22 15:03:44;;;;;;;1.85;1.30;;;;;;;6.22;82.63;98647.69;5570040;32;33814;-52
2023/12/22 15:06:47;;;;;;;5.07;1.73;;;;;;;6.21;81.80;98663.97;5569603;32;33581;-54
2023/12/22 15:10:05;;;;;;;4.70;1.30;;;;;;;6.33;81.30;98662.41;5570048;32;33770;-53
2023/12/22 15:13:07;;;;;;;4.15;1.60;;;;;;;6.37;80.19;98654.63;5568780;32;34363;-53
2023/12/22 15:16:09;;;;;;;2.83;1.50;;;;;;;6.34;81.66;98645.34;5570239;32;33680;-53
2023/12/22 15:19:12;;;;;;;3.15;1.37;;;;;;;6.40;81.11;98632.75;5569800;32;33730;-53
2023/12/22 15:22:15;;;;;;;4.43;1.50;;;;;;;6.70;85.07;98607.41;5570195;32;33655;-53
2023/12/22 15:25:19;;;;;;;2.45;1.67;;;;;;;6.63;87.13;98607.03;5569453;32;34320;-53
2023/12/22 15:28:21;;;;;;;5.35;1.75;;;;;;;6.58;77.25;98647.81;5570024;32;33447;-54
2023/12/22 15:31:24;;;;;;;3.95;1.37;;;;;;;6.69;78.87;98659.09;5569768;32;34032;-53
2023/12/22 15:34:27;;;;;;;2.95;1.95;;;;;;;6.77;76.71;98678.91;5569751;32;33368;-53
